Time;durP1;ratioP1;P1;durP2;ratioP2;P2;SDS_P1;SDS_P2;PMS_P1;PMS_P2;Temp;Humidity;BMP_temperature;BMP_pressure;BME280_temperature;BME280_humidity;BME280_pressure;Samples;Min_cycle;Max_cycle;Signal;HPM_P1;HPM_P2
2022/09/07 00:00:16;;;;;;;2.60;1.30;;;;;;;18.58;49.56;100194.50;3140820;28;20154;-63
2022/09/07 00:02:06;;;;;;;6.23;1.80;;;;;;;18.55;49.73;100202.63;3148584;28;20080;-63
2022/09/07 00:03:38;;;;;;;3.78;1.30;;;;;;;18.53;49.71;100197.47;3136972;28;20314;-64
2022/09/07 00:05:10;;;;;;;2.10;1.52;;;;;;;18.55;49.83;100200.00;3135906;28;20870;-64
2022/09/07 00:06:42;;;;;;;2.70;1.27;;;;;;;18.55;49.66;100200.84;3136793;28;20048;-61
2022/09/07 00:08:15;;;;;;;3.15;1.50;;;;;;;18.54;49.77;100193.84;3136063;28;20058;-63
2022/09/07 00:09:47;;;;;;;7.15;1.60;;;;;;;18.55;49.78;100198.19;3136425;28;20617;-63
2022/09/07 00:11:20;;;;;;;6.40;1.70;;;;;;;18.57;49.91;100203.34;3135522;28;20055;-63
2022/09/07 00:12:51;;;;;;;3.57;2.07;;;;;;;18.56;49.86;100196.41;3136278;28;20330;-62
2022/09/07 00:14:23;;;;;;;5.85;1.75;;;;;;;18.56;49.74;100199.88;3136461;28;20052;-62
2022/09/07 00:15:56;;;;;;;4.22;1.48;;;;;;;18.59;49.94;100199.66;3136034;28;20082;-63
2022/09/07 00:17:28;;;;;;;1.73;1.00;;;;;;;18.50;49.91;100187.13;3135400;28;20056;-62
2022/09/07 00:19:02;;;;;;;2.90;1.30;;;;;;;18.61;49.97;100204.84;3136133;28;20055;-64
2022/09/07 00:20:33;;;;;;;4.85;1.30;;;;;;;18.62;49.81;100203.88;3136364;28;20515;-64
2022/09/07 00:22:05;;;;;;;3.05;1.40;;;;;;;18.62;49.80;100206.50;3135981;28;20139;-64
2022/09/07 00:23:38;;;;;;;4.68;1.50;;;;;;;18.55;49.69;100186.81;3136121;28;20398;-64
2022/09/07 00:25:10;;;;;;;3.05;1.15;;;;;;;18.64;49.64;100202.81;3135876;28;20056;-64
2022/09/07 00:26:42;;;;;;;3.17;1.52;;;;;;;18.63;49.67;100200.25;3135923;28;20064;-64
2022/09/07 00:28:13;;;;;;;3.88;1.55;;;;;;;18.64;49.82;100201.97;3136107;28;20516;-64
2022/09/07 00:29:45;;;;;;;4.78;1.90;;;;;;;18.65;49.90;100207.13;3135570;28;20056;-64
2022/09/07 00:31:20;;;;;;;6.10;1.52;;;;;;;18.66;49.87;100205.31;3135062;28;20117;-65
2022/09/07 00:32:52;;;;;;;3.95;1.35;;;;;;;18.65;49.93;100204.47;3135297;28;20567;-64
2022/09/07 00:34:24;;;;;;;4.15;1.65;;;;;;;18.63;49.78;100202.91;3135234;28;20875;-64
2022/09/07 00:35:58;;;;;;;3.85;1.20;;;;;;;18.64;49.74;100213.34;3135049;28;20055;-64
2022/09/07 00:37:30;;;;;;;5.80;1.60;;;;;;;18.64;49.87;100212.53;3136143;28;20048;-64
2022/09/07 00:39:02;;;;;;;3.25;1.35;;;;;;;18.61;49.82;100208.31;3135444;28;20059;-64
2022/09/07 00:40:33;;;;;;;3.65;1.50;;;;;;;18.63;49.88;100205.53;3136447;28;20052;-64
2022/09/07 00:42:05;;;;;;;3.83;1.73;;;;;;;18.65;49.82;100216.84;3136167;28;20052;-64
2022/09/07 00:43:39;;;;;;;3.38;1.40;;;;;;;18.65;49.78;100216.84;3135556;28;20113;-64
2022/09/07 00:45:16;;;;;;;3.25;1.48;;;;;;;18.64;49.88;100212.53;3136505;28;20570;-64
2022/09/07 00:46:48;;;;;;;3.20;1.70;;;;;;;18.65;49.89;100214.19;3137461;28;20589;-63
2022/09/07 00:48:23;;;;;;;5.53;1.42;;;;;;;18.64;49.80;100208.09;3140233;28;20052;-63
2022/09/07 00:49:59;;;;;;;3.70;1.38;;;;;;;18.65;50.13;100222.09;3140143;28;20055;-64
2022/09/07 00:51:36;;;;;;;7.43;1.50;;;;;;;18.63;50.13;100216.09;3140174;28;20051;-64
2022/09/07 00:53:11;;;;;;;3.33;1.67;;;;;;;18.61;50.13;100218.84;3140136;28;20044;-63
2022/09/07 00:54:47;;;;;;;5.97;1.80;;;;;;;18.60;50.21;100211.03;3140163;28;20056;-64
2022/09/07 00:56:21;;;;;;;5.28;1.48;;;;;;;18.58;50.26;100212.97;3139498;28;20048;-64
2022/09/07 00:57:55;;;;;;;5.32;1.65;;;;;;;18.58;50.31;100215.59;3150896;28;20452;-63
2022/09/07 00:59:34;;;;;;;5.13;1.60;;;;;;;18.57;50.31;100214.72;3139984;28;20056;-64
2022/09/07 01:01:08;;;;;;;3.95;1.50;;;;;;;18.57;50.45;100213.91;3127776;28;20103;-64
2022/09/07 01:02:41;;;;;;;3.17;1.63;;;;;;;18.56;50.37;100214.84;3139448;28;20234;-64
2022/09/07 01:04:14;;;;;;;3.25;1.52;;;;;;;18.56;50.31;100213.06;3139913;28;20114;-64
2022/09/07 01:05:49;;;;;;;5.72;1.30;;;;;;;18.57;50.29;100216.53;3140048;28;20409;-64
2022/09/07 01:07:20;;;;;;;3.38;1.83;;;;;;;18.56;50.23;100220.13;3140045;28;20056;-64
2022/09/07 01:08:54;;;;;;;3.20;1.50;;;;;;;18.56;50.15;100213.06;3139791;28;20433;-64
2022/09/07 01:10:30;;;;;;;2.17;1.30;;;;;;;18.54;50.28;100207.03;3140090;28;20410;-64
2022/09/07 01:12:03;;;;;;;2.95;1.50;;;;;;;18.52;50.42;100219.53;3139944;28;20066;-64
2022/09/07 01:13:36;;;;;;;3.03;1.52;;;;;;;18.49;50.39;100213.63;3140221;28;20582;-64
2022/09/07 01:15:09;;;;;;;5.93;1.70;;;;;;;18.50;50.34;100215.31;3139845;28;20112;-64
2022/09/07 01:16:55;;;;;;;11.73;1.55;;;;;;;18.47;50.53;100207.63;3140000;28;20060;-63
2022/09/07 01:18:37;;;;;;;2.50;1.40;;;;;;;18.46;50.41;100211.19;3139940;28;20454;-64
2022/09/07 01:20:29;;;;;;;3.88;1.58;;;;;;;18.44;50.65;100206.03;3139822;28;20060;-64
2022/09/07 01:22:25;;;;;;;2.40;1.20;;;;;;;18.40;50.61;100208.06;3139758;28;20045;-62
2022/09/07 01:24:43;;;;;;;7.32;1.58;;;;;;;18.35;50.97;100209.31;3139593;28;20579;-63
2022/09/07 01:26:55;;;;;;;4.28;1.67;;;;;;;18.27;51.00;100211.66;3113173;28;20104;-64
2022/09/07 01:28:30;;;;;;;3.35;1.65;;;;;;;18.19;51.23;100212.22;3129615;28;20551;-64
2022/09/07 01:30:04;;;;;;;5.72;1.48;;;;;;;18.10;51.39;100194.38;3139848;28;20152;-63
2022/09/07 01:31:47;;;;;;;16.17;2.65;;;;;;;18.14;51.50;100206.41;3127536;28;20485;-64
2022/09/07 01:33:43;;;;;;;3.38;1.67;;;;;;;18.12;51.72;100210.94;3127499;28;20057;-63
2022/09/07 01:35:22;;;;;;;4.82;1.70;;;;;;;18.10;51.66;100211.06;3127924;28;20052;-63
2022/09/07 01:37:05;;;;;;;6.32;1.88;;;;;;;18.08;51.67;100199.78;3139819;28;20491;-63
2022/09/07 01:38:41;;;;;;;4.03;1.98;;;;;;;18.05;51.64;100200.00;3139755;28;20052;-63
2022/09/07 01:40:18;;;;;;;4.10;1.95;;;;;;;18.05;51.83;100199.16;3139753;28;20056;-63
2022/09/07 01:41:58;;;;;;;6.72;2.03;;;;;;;18.05;51.83;100201.78;3139824;28;20052;-63
2022/09/07 01:43:39;;;;;;;8.10;1.70;;;;;;;18.02;51.79;100202.84;3139792;28;20109;-63
2022/09/07 01:45:13;;;;;;;8.02;1.95;;;;;;;18.00;52.07;100193.34;3139886;28;20145;-63
2022/09/07 01:46:53;;;;;;;3.42;1.80;;;;;;;17.99;52.14;100202.22;3139732;28;20075;-63
2022/09/07 01:48:26;;;;;;;9.88;2.55;;;;;;;17.96;52.15;100201.47;3139587;28;20053;-63
2022/09/07 01:50:06;;;;;;;10.25;1.92;;;;;;;17.95;52.18;100197.16;3139792;28;20048;-65
2022/09/07 01:51:43;;;;;;;10.85;2.78;;;;;;;17.96;52.23;100198.84;3142427;28;20045;-64
2022/09/07 01:53:33;;;;;;;8.80;1.55;;;;;;;17.96;52.31;100196.22;3147351;28;20087;-64
2022/09/07 01:55:10;;;;;;;6.13;1.85;;;;;;;17.93;52.66;100193.78;3154223;28;20110;-64
2022/09/07 01:56:45;;;;;;;5.68;1.83;;;;;;;17.93;52.41;100190.31;3147095;28;20053;-64
2022/09/07 01:58:22;;;;;;;4.35;1.48;;;;;;;17.92;52.37;100191.25;3147387;28;20441;-63
2022/09/07 02:00:04;;;;;;;4.53;1.73;;;;;;;17.95;52.53;100196.28;3147401;28;20060;-64
2022/09/07 02:01:41;;;;;;;5.72;1.95;;;;;;;17.94;52.50;100192.81;3147553;28;20052;-64
2022/09/07 02:03:16;;;;;;;6.57;1.55;;;;;;;17.94;52.67;100194.63;3147466;28;20052;-63
2022/09/07 02:04:53;;;;;;;4.45;1.80;;;;;;;17.90;52.50;100186.09;3145453;28;20056;-64
2022/09/07 02:06:34;;;;;;;5.47;2.08;;;;;;;17.93;52.74;100192.94;3147254;28;20049;-64
2022/09/07 02:08:12;;;;;;;6.70;1.90;;;;;;;17.92;52.67;100194.75;3147118;28;20448;-64
2022/09/07 02:09:50;;;;;;;2.47;1.42;;;;;;;17.91;52.83;100190.41;3147554;28;20048;-64
2022/09/07 02:11:28;;;;;;;6.30;1.95;;;;;;;17.88;52.74;100192.41;3147391;28;20052;-64
2022/09/07 02:13:06;;;;;;;2.83;1.50;;;;;;;17.87;52.86;100196.00;3147247;28;20048;-64
2022/09/07 02:14:41;;;;;;;5.85;1.70;;;;;;;17.85;52.98;100196.09;3147279;28;20131;-63
2022/09/07 02:16:19;;;;;;;5.13;2.33;;;;;;;17.83;53.16;100203.25;3147287;28;20146;-64
2022/09/07 02:17:56;;;;;;;3.33;1.60;;;;;;;17.80;53.17;100194.72;3147535;28;20386;-64
2022/09/07 02:19:34;;;;;;;4.90;1.70;;;;;;;17.76;53.17;100196.72;3147042;28;20060;-63
2022/09/07 02:21:09;;;;;;;5.00;1.70;;;;;;;17.76;53.09;100201.13;3147175;28;20040;-64
2022/09/07 02:22:45;;;;;;;4.25;1.50;;;;;;;17.75;53.32;100200.31;3147084;28;20070;-64
2022/09/07 02:24:23;;;;;;;7.93;1.77;;;;;;;17.76;53.40;100195.88;3147395;28;20044;-64
2022/09/07 02:26:04;;;;;;;5.10;1.85;;;;;;;17.74;53.38;100193.31;3147033;28;20525;-65
2022/09/07 02:27:40;;;;;;;4.65;2.15;;;;;;;17.74;53.39;100193.31;3147028;28;20783;-63
2022/09/07 02:29:11;;;;;;;4.97;2.10;;;;;;;17.74;53.61;100193.31;3146950;28;20052;-64
2022/09/07 02:30:44;;;;;;;7.10;1.80;;;;;;;17.75;53.66;100189.75;3146971;28;20044;-64
2022/09/07 02:32:18;;;;;;;5.55;2.05;;;;;;;17.66;53.68;100179.88;3147122;28;20461;-64
2022/09/07 02:33:49;;;;;;;5.43;2.05;;;;;;;17.74;53.73;100190.69;3146876;28;20434;-65
2022/09/07 02:35:21;;;;;;;7.05;1.52;;;;;;;17.73;53.69;100184.59;3147134;28;20052;-64
2022/09/07 02:36:52;;;;;;;2.17;1.65;;;;;;;17.72;53.72;100175.00;3147117;28;20055;-64
2022/09/07 02:38:25;;;;;;;4.03;1.88;;;;;;;17.73;53.93;100183.75;3147007;28;20103;-64
2022/09/07 02:39:56;;;;;;;3.33;1.65;;;;;;;17.72;53.74;100176.81;3146879;28;20513;-64
2022/09/07 02:41:34;;;;;;;4.25;1.33;;;;;;;17.72;53.90;100176.81;3146971;28;20056;-64
2022/09/07 02:43:08;;;;;;;4.20;1.90;;;;;;;17.71;53.72;100183.84;3147016;28;20048;-64
2022/09/07 02:44:44;;;;;;;3.15;1.55;;;;;;;17.69;53.64;100171.75;3146801;28;20051;-64
2022/09/07 02:46:27;;;;;;;4.70;1.70;;;;;;;17.68;53.83;100184.06;3146854;28;20044;-64
2022/09/07 02:48:11;;;;;;;3.65;1.85;;;;;;;17.64;53.62;100173.84;3147009;28;20051;-64
2022/09/07 02:50:06;;;;;;;6.20;2.65;;;;;;;17.63;54.03;100180.03;3149208;28;20064;-64
2022/09/07 02:51:45;;;;;;;7.10;2.42;;;;;;;17.62;54.13;100181.00;3147104;28;20044;-63
2022/09/07 02:53:38;;;;;;;3.60;1.80;;;;;;;17.62;54.17;100187.09;3146987;28;20052;-64
2022/09/07 02:55:22;;;;;;;4.18;1.98;;;;;;;17.63;54.05;100186.19;3146919;28;20047;-64
2022/09/07 02:57:05;;;;;;;8.75;2.05;;;;;;;17.61;54.27;100195.97;3146712;28;20044;-64
2022/09/07 02:58:46;;;;;;;5.85;2.13;;;;;;;17.59;54.54;100191.75;3146736;28;20051;-64
2022/09/07 03:00:24;;;;;;;3.38;2.00;;;;;;;17.58;54.63;100185.63;3145120;28;20074;-64
2022/09/07 03:02:03;;;;;;;5.07;2.13;;;;;;;17.52;54.45;100175.53;3145977;28;20082;-65
2022/09/07 03:03:42;;;;;;;4.95;1.90;;;;;;;17.49;54.69;100173.09;3147045;28;20131;-64
2022/09/07 03:05:20;;;;;;;9.85;2.35;;;;;;;17.60;54.74;100186.38;3146409;28;20153;-65
2022/09/07 03:06:58;;;;;;;4.70;1.98;;;;;;;17.61;54.94;100190.69;3146700;28;20040;-64
2022/09/07 03:08:35;;;;;;;5.65;2.33;;;;;;;17.60;54.77;100189.03;3146238;28;20194;-65
2022/09/07 03:10:08;;;;;;;4.47;2.05;;;;;;;17.55;54.96;100171.84;3146749;28;20517;-64
2022/09/07 03:11:40;;;;;;;6.97;2.42;;;;;;;17.60;55.07;100188.16;3146789;28;20048;-65
2022/09/07 03:13:19;;;;;;;5.35;2.10;;;;;;;17.61;55.08;100195.13;3146484;28;20056;-65
2022/09/07 03:14:51;;;;;;;5.88;2.05;;;;;;;17.59;55.12;100187.31;3146493;28;20099;-65
2022/09/07 03:16:22;;;;;;;5.18;2.40;;;;;;;17.60;55.24;100190.78;3146725;28;20056;-65
2022/09/07 03:17:54;;;;;;;4.75;2.20;;;;;;;17.58;55.54;100184.81;3146624;28;20055;-65
2022/09/07 03:19:26;;;;;;;8.38;2.00;;;;;;;17.61;55.51;100198.59;3146224;28;20056;-65
2022/09/07 03:20:58;;;;;;;10.40;2.42;;;;;;;17.62;55.38;100191.53;3146318;28;20045;-65
2022/09/07 03:22:32;;;;;;;7.70;2.17;;;;;;;17.64;55.51;100189.66;3146790;28;20056;-65
2022/09/07 03:24:03;;;;;;;;;;;;;;;17.61;55.59;100190.69;3146744;28;20505;-65
2022/09/07 03:25:35;;;;;;;9.30;2.65;;;;;;;17.60;55.53;100185.53;3146487;28;19974;-65
2022/09/07 03:27:07;;;;;;;8.13;1.92;;;;;;;17.61;55.61;100190.69;3146479;28;20067;-65
2022/09/07 03:28:39;;;;;;;5.40;2.38;;;;;;;17.60;55.76;100185.53;3146449;28;20391;-65
2022/09/07 03:30:12;;;;;;;7.30;2.47;;;;;;;17.62;55.68;100186.28;3145970;28;20445;-65
2022/09/07 03:31:45;;;;;;;6.30;2.70;;;;;;;17.61;55.69;100189.84;3146333;28;20473;-65
2022/09/07 03:33:17;;;;;;;9.27;2.40;;;;;;;17.61;55.80;100187.22;3146437;28;20060;-64
2022/09/07 03:34:50;;;;;;;11.32;2.90;;;;;;;17.59;56.03;100192.59;3146504;28;20049;-64
2022/09/07 03:36:22;;;;;;;12.55;2.80;;;;;;;17.59;55.88;100199.66;3146231;28;20072;-64
2022/09/07 03:37:53;;;;;;;12.02;2.67;;;;;;;17.59;56.13;100194.38;3146139;28;20051;-64
2022/09/07 03:39:25;;;;;;;10.35;2.80;;;;;;;17.58;55.86;100187.44;3146581;28;20052;-64
2022/09/07 03:40:59;;;;;;;12.43;2.65;;;;;;;17.59;55.94;100195.22;3146235;28;20052;-64
2022/09/07 03:42:31;;;;;;;5.43;2.33;;;;;;;17.59;56.32;100199.66;3146197;28;20585;-64
2022/09/07 03:44:03;;;;;;;13.43;2.97;;;;;;;17.58;56.19;100195.34;3146260;28;20053;-64
2022/09/07 03:45:35;;;;;;;8.53;2.93;;;;;;;17.60;56.23;100201.31;3149179;28;20515;-64
2022/09/07 03:47:06;;;;;;;5.15;2.60;;;;;;;17.58;56.26;100203.25;3148418;28;20037;-64
2022/09/07 03:48:38;;;;;;;7.95;2.65;;;;;;;17.59;56.36;100202.28;3146176;28;20049;-64
2022/09/07 03:50:12;;;;;;;8.90;2.70;;;;;;;17.58;56.46;100208.50;3145130;28;20135;-65
2022/09/07 03:51:42;;;;;;;;;;;;;;;17.57;56.45;100212.06;3146817;28;20040;-64
2022/09/07 03:53:14;;;;;;;5.78;2.58;;;;;;;17.56;56.34;100211.22;3145802;28;19930;-64
2022/09/07 03:54:46;;;;;;;8.82;2.85;;;;;;;17.55;56.55;100212.19;3145856;28;20666;-64
2022/09/07 03:56:21;;;;;;;7.60;3.50;;;;;;;17.55;56.79;100217.44;3145539;28;20048;-64
2022/09/07 03:57:52;;;;;;;5.93;2.78;;;;;;;17.56;56.62;100210.38;3144868;28;20049;-64
2022/09/07 03:59:24;;;;;;;7.50;3.10;;;;;;;17.57;56.80;100212.06;3145734;28;20137;-64
2022/09/07 04:00:56;;;;;;;11.57;3.75;;;;;;;17.57;56.72;100212.06;3145838;28;20048;-64
2022/09/07 04:02:28;;;;;;;10.95;3.88;;;;;;;17.58;57.03;100211.13;3145770;28;20085;-64
2022/09/07 04:04:01;;;;;;;8.85;2.97;;;;;;;17.58;56.98;100216.41;3145805;28;20059;-64
2022/09/07 04:05:34;;;;;;;;;;;;;;;17.56;57.13;100218.28;3146193;28;20579;-64
2022/09/07 04:07:05;;;;;;;9.50;3.17;;;;;;;17.55;57.09;100221.88;3145728;28;19985;-65
2022/09/07 04:08:39;;;;;;;9.07;3.10;;;;;;;17.43;57.12;100194.59;3146006;28;20478;-62
2022/09/07 04:10:10;;;;;;;6.38;3.17;;;;;;;17.54;57.29;100218.41;3146088;28;20044;-64
2022/09/07 04:11:42;;;;;;;7.90;3.78;;;;;;;17.52;57.21;100221.13;3145719;28;20067;-65
2022/09/07 04:13:14;;;;;;;6.95;3.47;;;;;;;17.52;57.34;100225.56;3145725;28;20053;-65
2022/09/07 04:14:46;;;;;;;8.80;3.58;;;;;;;17.53;57.46;100221.97;3145995;28;20075;-65
2022/09/07 04:16:19;;;;;;;11.10;3.97;;;;;;;17.52;57.54;100229.03;3133097;28;20131;-66
2022/09/07 04:17:51;;;;;;;7.65;3.65;;;;;;;17.51;57.68;100219.44;3144537;28;20049;-65
2022/09/07 04:19:23;;;;;;;10.45;3.45;;;;;;;17.51;57.46;100224.72;3145716;28;20316;-66
2022/09/07 04:20:58;;;;;;;10.15;3.33;;;;;;;17.52;57.90;100231.66;3145912;28;20048;-65
2022/09/07 04:22:30;;;;;;;8.70;3.67;;;;;;;17.50;57.69;100225.66;3145465;28;20129;-65
2022/09/07 04:24:02;;;;;;;9.98;3.38;;;;;;;17.51;57.83;100230.00;3145596;28;20056;-64
2022/09/07 04:25:33;;;;;;;15.00;3.50;;;;;;;17.51;58.01;100237.88;3145301;28;20045;-63
2022/09/07 04:27:05;;;;;;;10.25;3.38;;;;;;;17.45;58.23;100229.53;3145757;28;20044;-63
2022/09/07 04:28:37;;;;;;;10.60;3.15;;;;;;;17.42;58.32;100237.63;3145120;28;20449;-63
2022/09/07 04:30:12;;;;;;;9.20;3.75;;;;;;;17.39;58.19;100243.97;3145607;28;20052;-63
2022/09/07 04:31:43;;;;;;;9.40;3.05;;;;;;;17.39;58.26;100233.44;3145577;28;20052;-63
2022/09/07 04:33:14;;;;;;;7.35;3.60;;;;;;;17.38;58.37;100237.00;3145914;28;20051;-62
2022/09/07 04:34:46;;;;;;;6.93;3.22;;;;;;;17.37;58.42;100240.59;3145640;28;20075;-62
2022/09/07 04:36:20;;;;;;;10.43;3.60;;;;;;;17.37;58.38;100232.69;3145406;28;20505;-63
2022/09/07 04:37:52;;;;;;;11.60;3.08;;;;;;;17.39;58.48;100243.09;3145376;28;20091;-62
2022/09/07 04:39:24;;;;;;;7.40;3.13;;;;;;;17.32;58.67;100250.56;3145824;28;20045;-62
2022/09/07 04:41:00;;;;;;;10.25;3.17;;;;;;;17.33;58.67;100246.97;3145254;28;20053;-62
2022/09/07 04:42:32;;;;;;;9.73;3.55;;;;;;;17.32;58.51;100247.94;3153670;28;20055;-62
2022/09/07 04:44:04;;;;;;;11.10;3.47;;;;;;;17.27;58.75;100244.75;3145471;28;20086;-62
2022/09/07 04:45:36;;;;;;;11.20;3.05;;;;;;;17.33;58.56;100249.63;3145588;28;20057;-61
2022/09/07 04:47:08;;;;;;;6.97;3.40;;;;;;;17.34;58.62;100248.69;3145325;28;20060;-59
2022/09/07 04:48:40;;;;;;;17.48;10.73;;;;;;;17.35;58.84;100245.09;3145261;28;20148;-59
2022/09/07 04:50:12;;;;;;;83.47;47.80;;;;;;;17.36;58.81;100252.06;3145478;28;20068;-60
2022/09/07 04:51:45;;;;;;;23.25;12.00;;;;;;;17.39;58.68;100251.88;3145336;28;20509;-59
2022/09/07 04:53:16;;;;;;;50.95;26.48;;;;;;;17.41;58.80;100252.59;3144746;28;20059;-60
2022/09/07 04:54:49;;;;;;;35.85;14.85;;;;;;;17.46;58.65;100254.94;3145275;28;20048;-59
2022/09/07 04:56:21;;;;;;;10.98;4.07;;;;;;;17.47;58.52;100257.44;3145018;28;20087;-59
2022/09/07 04:57:53;;;;;;;11.30;3.33;;;;;;;17.47;58.64;100249.53;3145022;28;20041;-59
2022/09/07 04:59:24;;;;;;;13.75;3.00;;;;;;;17.45;58.62;100256.72;3145407;28;20529;-59
2022/09/07 05:01:00;;;;;;;9.88;3.17;;;;;;;17.45;58.48;100261.13;3145067;28;20122;-60
2022/09/07 05:02:32;;;;;;;7.05;3.58;;;;;;;17.46;58.29;100260.19;3145527;28;20045;-60
2022/09/07 05:04:04;;;;;;;8.20;3.53;;;;;;;17.46;58.52;100253.13;3145255;28;20044;-60
2022/09/07 05:05:38;;;;;;;11.50;3.35;;;;;;;17.50;58.29;100261.66;3145207;28;20068;-61
2022/09/07 05:07:11;;;;;;;12.93;4.10;;;;;;;17.52;58.44;100258.00;3145323;28;20569;-61
2022/09/07 05:08:44;;;;;;;;;;;;;;;17.49;58.59;100267.91;3145797;28;20414;-61
2022/09/07 05:10:15;;;;;;;7.60;3.40;;;;;;;17.51;58.19;100261.59;3145143;28;20015;-61
2022/09/07 05:11:47;;;;;;;9.02;3.40;;;;;;;17.54;58.38;100265.81;3145375;28;20600;-61
2022/09/07 05:13:18;;;;;;;10.95;3.78;;;;;;;17.56;58.51;100255.16;3145167;28;20056;-61
2022/09/07 05:14:50;;;;;;;12.07;3.63;;;;;;;17.57;58.59;100265.59;3145311;28;20044;-60
2022/09/07 05:16:23;;;;;;;9.25;3.00;;;;;;;17.56;58.41;100266.53;3145061;28;20052;-59
2022/09/07 05:17:55;;;;;;;9.18;3.08;;;;;;;17.55;58.35;100264.00;3144127;28;20048;-60
2022/09/07 05:19:27;;;;;;;16.13;3.85;;;;;;;17.55;58.07;100270.13;3145602;28;20059;-60
2022/09/07 05:21:08;;;;;;;12.48;3.50;;;;;;;17.52;58.15;100265.91;3145266;28;20059;-60
2022/09/07 05:22:41;;;;;;;11.65;3.00;;;;;;;17.51;57.96;100266.84;3145231;28;20060;-60
2022/09/07 05:24:13;;;;;;;6.68;3.50;;;;;;;17.46;58.26;100268.09;3145113;28;20533;-60
2022/09/07 05:25:46;;;;;;;9.43;3.78;;;;;;;17.45;58.25;100269.03;3144568;28;20528;-60
2022/09/07 05:27:18;;;;;;;7.28;3.53;;;;;;;17.44;57.94;100265.56;3145454;28;20048;-59
2022/09/07 05:28:50;;;;;;;15.60;3.95;;;;;;;17.44;58.02;100260.28;3145085;28;20461;-59
2022/09/07 05:30:23;;;;;;;19.70;3.38;;;;;;;17.46;57.85;100262.84;3134995;28;20128;-60
2022/09/07 05:31:53;;;;;;;6.50;3.03;;;;;;;17.52;58.06;100268.53;3145260;28;20537;-60
2022/09/07 05:33:25;;;;;;;12.13;3.63;;;;;;;17.61;58.12;100260.97;3144750;28;20045;-60
2022/09/07 05:34:57;;;;;;;6.15;3.38;;;;;;;17.66;57.77;100272.03;3144825;28;20458;-60
2022/09/07 05:36:29;;;;;;;9.57;2.95;;;;;;;17.74;58.06;100269.72;3145172;28;20109;-60
2022/09/07 05:38:03;;;;;;;6.55;3.42;;;;;;;17.82;57.62;100271.88;3147237;28;20051;-61
2022/09/07 05:39:34;;;;;;;9.48;3.63;;;;;;;17.89;57.50;100271.34;3153052;28;20140;-62
2022/09/07 05:41:13;;;;;;;12.40;3.47;;;;;;;17.98;57.22;100272.50;3145050;28;20079;-60
2022/09/07 05:42:45;;;;;;;13.15;3.15;;;;;;;18.01;56.98;100271.44;3144805;28;20080;-62
2022/09/07 05:44:17;;;;;;;6.30;3.03;;;;;;;18.05;56.70;100272.94;3144477;28;20056;-65
2022/09/07 05:45:49;;;;;;;11.85;3.42;;;;;;;18.10;56.44;100276.09;3144205;28;20044;-64
2022/09/07 05:47:20;;;;;;;8.80;3.42;;;;;;;18.16;56.30;100281.81;3144597;28;20575;-62
2022/09/07 05:48:51;;;;;;;8.60;3.15;;;;;;;18.26;56.20;100276.72;3144416;28;20461;-62
2022/09/07 05:50:23;;;;;;;14.05;3.50;;;;;;;18.33;55.84;100271.88;3144699;28;20052;-64
2022/09/07 05:51:55;;;;;;;10.10;3.53;;;;;;;18.36;55.77;100275.13;3144707;28;20537;-65
2022/09/07 05:53:27;;;;;;;12.27;3.33;;;;;;;18.44;55.74;100265.84;3144886;28;20071;-61
2022/09/07 05:54:59;;;;;;;9.18;2.80;;;;;;;18.56;55.70;100262.34;3144483;28;20052;-60
2022/09/07 05:56:34;;;;;;;6.85;2.80;;;;;;;18.69;55.42;100265.78;3144463;28;20532;-60
2022/09/07 05:58:05;;;;;;;6.95;3.03;;;;;;;18.80;55.07;100263.25;3143793;28;20528;-62
2022/09/07 05:59:37;;;;;;;9.70;3.30;;;;;;;18.90;54.77;100266.09;3144508;28;20391;-62
2022/09/07 06:01:11;;;;;;;15.95;3.88;;;;;;;18.98;54.39;100262.88;3144836;28;20190;-59
2022/09/07 06:02:42;;;;;;;12.15;3.38;;;;;;;19.09;54.20;100260.28;3144797;28;20063;-60
2022/09/07 06:04:14;;;;;;;14.23;2.78;;;;;;;19.21;54.04;100259.38;3144678;28;20057;-60
2022/09/07 06:05:46;;;;;;;13.32;3.53;;;;;;;19.30;53.59;100263.16;3144737;28;20083;-59
2022/09/07 06:07:18;;;;;;;30.73;2.92;;;;;;;19.35;53.28;100257.53;3144953;28;20080;-62
2022/09/07 06:08:52;;;;;;;18.70;3.47;;;;;;;19.44;53.09;100260.31;3144796;28;20052;-63
2022/09/07 06:10:24;;;;;;;7.90;3.40;;;;;;;19.49;52.73;100258.19;3144874;28;20053;-62
2022/09/07 06:11:56;;;;;;;7.88;2.75;;;;;;;19.57;52.60;100260.22;3144823;28;20238;-63
2022/09/07 06:13:28;;;;;;;8.00;3.00;;;;;;;19.66;52.03;100269.28;3144726;28;20083;-62
2022/09/07 06:15:00;;;;;;;8.10;2.83;;;;;;;19.71;51.71;100257.44;3144811;28;20098;-64
2022/09/07 06:16:34;;;;;;;8.50;2.75;;;;;;;19.76;51.42;100255.28;3143844;28;20131;-66
2022/09/07 06:18:06;;;;;;;7.05;3.80;;;;;;;19.83;51.38;100253.00;3144411;28;20139;-65
2022/09/07 06:19:38;;;;;;;4.88;2.83;;;;;;;19.90;51.08;100254.19;3144607;28;20056;-66
2022/09/07 06:21:11;;;;;;;9.38;2.92;;;;;;;19.94;50.85;100253.03;3143859;28;20436;-62
2022/09/07 06:22:43;;;;;;;;;;;;;;;19.96;50.69;100248.44;3144621;28;20045;-63
2022/09/07 06:24:16;;;;;;;4.68;2.38;;;;;;;20.05;50.83;100257.47;3144622;28;19921;-65
2022/09/07 06:25:49;;;;;;;7.30;2.42;;;;;;;20.09;50.23;100251.00;3145110;28;20178;-63
2022/09/07 06:27:20;;;;;;;5.53;2.55;;;;;;;20.15;50.16;100255.81;3144395;28;20136;-64
2022/09/07 06:28:51;;;;;;;3.72;2.33;;;;;;;20.21;49.91;100260.63;3144565;28;20052;-59
2022/09/07 06:30:24;;;;;;;6.80;2.30;;;;;;;20.28;50.05;100254.84;3144515;28;20060;-63
2022/09/07 06:31:56;;;;;;;4.35;2.20;;;;;;;20.34;49.80;100255.19;3144847;28;20052;-64
2022/09/07 06:33:28;;;;;;;7.03;2.60;;;;;;;20.37;49.41;100252.31;3144869;28;20455;-62
2022/09/07 06:35:00;;;;;;;7.60;1.92;;;;;;;20.45;49.54;100249.06;3152555;28;20113;-65
2022/09/07 06:36:31;;;;;;;8.07;2.25;;;;;;;20.48;49.16;100250.63;3144888;28;20101;-64
2022/09/07 06:38:03;;;;;;;9.85;2.47;;;;;;;20.50;48.81;100249.56;3146361;28;20044;-63
2022/09/07 06:39:36;;;;;;;6.40;2.45;;;;;;;20.54;48.99;100243.06;3146869;28;20049;-64
2022/09/07 06:41:11;;;;;;;5.38;2.67;;;;;;;20.59;48.67;100240.91;3146537;28;20079;-63
2022/09/07 06:42:43;;;;;;;9.18;2.15;;;;;;;20.67;48.58;100243.78;3147115;28;20048;-64
2022/09/07 06:44:15;;;;;;;9.35;2.47;;;;;;;20.78;48.65;100252.66;3146597;28;20072;-65
2022/09/07 06:45:52;;;;;;;6.47;2.58;;;;;;;20.80;48.50;100248.94;3146998;28;20047;-65
2022/09/07 06:47:24;;;;;;;8.25;2.30;;;;;;;20.87;48.17;100249.25;3134457;28;20139;-64
2022/09/07 06:48:56;;;;;;;3.75;2.08;;;;;;;20.95;48.24;100249.50;3145485;28;20852;-65
2022/09/07 06:50:28;;;;;;;10.10;2.85;;;;;;;21.03;47.87;100247.06;3146708;28;20126;-62
2022/09/07 06:52:00;;;;;;;4.60;2.25;;;;;;;21.14;47.80;100247.00;3146721;28;20055;-63
2022/09/07 06:53:33;;;;;;;6.68;2.30;;;;;;;21.24;47.73;100251.56;3146729;28;20980;-62
2022/09/07 06:55:07;;;;;;;9.27;2.45;;;;;;;21.33;47.62;100256.94;3146920;28;20048;-67
2022/09/07 06:56:39;;;;;;;9.50;2.78;;;;;;;21.44;47.25;100258.69;3146225;28;20501;-60
2022/09/07 06:58:11;;;;;;;9.13;2.90;;;;;;;21.52;47.11;100258.91;3146577;28;20044;-58
2022/09/07 06:59:42;;;;;;;4.70;1.95;;;;;;;21.61;46.77;100261.78;3146598;28;20059;-60
2022/09/07 07:01:16;;;;;;;4.85;2.20;;;;;;;21.71;46.30;100265.31;3146104;28;20063;-60
2022/09/07 07:02:48;;;;;;;5.13;2.20;;;;;;;21.80;46.51;100267.22;3146551;28;20053;-61
2022/09/07 07:04:20;;;;;;;5.70;2.60;;;;;;;21.90;46.01;100264.59;3146370;28;20090;-61
2022/09/07 07:05:53;;;;;;;5.78;2.30;;;;;;;21.96;45.87;100262.25;3146327;28;20063;-59
2022/09/07 07:07:25;;;;;;;5.18;2.83;;;;;;;22.09;45.82;100261.22;3146841;28;20082;-61
2022/09/07 07:08:57;;;;;;;5.95;2.40;;;;;;;22.22;45.31;100267.19;3146314;28;20503;-61
2022/09/07 07:10:30;;;;;;;6.55;2.90;;;;;;;22.39;45.25;100268.34;3146108;28;20056;-60
2022/09/07 07:12:02;;;;;;;6.25;3.22;;;;;;;22.61;45.34;100267.31;3146047;28;20053;-61
2022/09/07 07:13:34;;;;;;;5.10;2.95;;;;;;;22.81;44.68;100262.91;3145464;28;20056;-61
2022/09/07 07:15:08;;;;;;;5.10;2.55;;;;;;;23.02;43.95;100271.63;3144670;28;20067;-61
2022/09/07 07:16:39;;;;;;;4.85;2.10;;;;;;;23.24;43.96;100265.22;3146375;28;20436;-61
2022/09/07 07:18:12;;;;;;;8.00;2.75;;;;;;;23.44;43.26;100266.06;3146208;28;20052;-60